Bayshore Gardens, Florida
Current Conditions -  °F | °C
As of 6:53 AM on Wednesday 28 Jan 2015 (Local Time) from KSRQ Reporting Station
Clear Clear  
Wind Chill:   Ceiling: Unl
Heat Index:   Visibility: 10mi
Dew Point:   Wind: 7mph
Humidity: 71%   Direction: 40°NE
Pressure: 30.15"   Gusts: NA
Location:  27.4402°N, 82.5786°W
Report Text: KSRQ 281153Z 04006KT 10SM CLR 09/04 A3015 RMK AO2 SLP208 T00890039 10139 20089 53022
Loading
Personal Weather Stations






























Interactive Weather Map New forecast layout! Learn more

10-Day Weather Forecast

Advertisements
Track Severe Weather on mobile